Time;durP1;ratioP1;P1;durP2;ratioP2;P2;SDS_P1;SDS_P2;PMS_P1;PMS_P2;Temp;Humidity;BMP_temperature;BMP_pressure;BME280_temperature;BME280_humidity;BME280_pressure;Samples;Min_cycle;Max_cycle;Signal;HPM_P1;HPM_P2
2022/01/08 00:00:38;;;;;;;16.58;8.65;;;;;;;0.90;83.80;100941.81;5095829;28;20080;-68
2022/01/08 00:03:05;;;;;;;16.73;8.68;;;;;;;0.86;83.90;100945.25;5095360;28;20059;-67
2022/01/08 00:05:32;;;;;;;16.67;8.23;;;;;;;0.83;84.06;100946.91;5096354;28;20051;-67
2022/01/08 00:07:58;;;;;;;16.63;8.55;;;;;;;0.80;84.07;100955.53;5095581;28;20063;-67
2022/01/08 00:10:25;;;;;;;19.42;9.52;;;;;;;0.78;84.18;100962.44;5095906;28;20045;-70
2022/01/08 00:12:52;;;;;;;20.52;10.75;;;;;;;0.75;84.30;100958.09;5095870;28;20423;-68
2022/01/08 00:15:21;;;;;;;17.55;8.95;;;;;;;0.76;84.38;100956.38;5096234;28;20048;-70
2022/01/08 00:17:48;;;;;;;14.95;8.25;;;;;;;0.74;84.49;100956.34;5092182;28;20441;-70
2022/01/08 00:20:16;;;;;;;19.83;8.48;;;;;;;0.73;84.52;100959.78;5096432;28;20041;-65
2022/01/08 00:22:42;;;;;;;16.17;8.85;;;;;;;0.72;84.46;100972.75;5095414;28;20887;-67
2022/01/08 00:25:10;;;;;;;12.55;7.82;;;;;;;0.70;84.42;100969.25;5095507;28;20045;-68
2022/01/08 00:27:37;;;;;;;16.35;7.90;;;;;;;0.68;84.45;100968.38;5082988;28;20095;-69
2022/01/08 00:30:04;;;;;;;14.20;7.30;;;;;;;0.64;84.31;100972.66;5096697;28;20040;-69
2022/01/08 00:32:31;;;;;;;15.57;7.68;;;;;;;0.59;84.36;100963.97;5095806;28;20068;-69
2022/01/08 00:34:58;;;;;;;16.77;8.20;;;;;;;0.56;84.36;100958.72;5096696;28;20052;-69
2022/01/08 00:37:25;;;;;;;11.15;6.82;;;;;;;0.53;84.34;100963.84;5096037;28;20047;-68
2022/01/08 00:39:52;;;;;;;12.20;7.28;;;;;;;0.49;84.32;100964.69;5095883;28;20051;-69
2022/01/08 00:42:19;;;;;;;13.85;7.18;;;;;;;0.44;84.11;100959.44;5078198;28;20104;-68
2022/01/08 00:44:46;;;;;;;14.70;7.22;;;;;;;0.38;84.32;100965.41;5091119;28;20045;-69
2022/01/08 00:47:12;;;;;;;11.07;7.18;;;;;;;0.35;84.36;100960.19;5095481;28;20057;-70
2022/01/08 00:49:39;;;;;;;11.85;6.75;;;;;;;0.32;84.42;100967.91;5095133;28;20047;-71
2022/01/08 00:52:06;;;;;;;14.68;8.05;;;;;;;0.30;84.57;100970.50;5091497;28;20057;-69
2022/01/08 00:54:35;;;;;;;16.13;7.43;;;;;;;0.30;84.63;100967.91;5090128;28;20053;-70
2022/01/08 00:57:04;;;;;;;10.77;6.72;;;;;;;0.30;84.71;100967.91;5089717;28;20054;-71
2022/01/08 00:59:31;;;;;;;15.52;8.45;;;;;;;0.29;84.96;100971.34;5095887;28;20036;-70
2022/01/08 01:01:58;;;;;;;16.58;8.40;;;;;;;0.30;84.96;100964.44;5095613;28;20056;-70
2022/01/08 01:04:24;;;;;;;18.85;8.85;;;;;;;0.32;85.11;100973.09;5095887;28;20047;-69
2022/01/08 01:06:51;;;;;;;16.83;8.98;;;;;;;0.33;84.98;100969.66;5095329;28;20506;-71
2022/01/08 01:09:18;;;;;;;18.02;9.25;;;;;;;0.32;84.87;100970.50;5095925;28;20044;-68
2022/01/08 01:11:45;;;;;;;19.40;9.90;;;;;;;0.34;85.05;100986.97;5093965;28;20052;-69
2022/01/08 01:14:12;;;;;;;17.42;9.45;;;;;;;0.37;85.13;100983.53;5095063;28;20052;-68
2022/01/08 01:16:38;;;;;;;18.88;10.50;;;;;;;0.38;85.09;100991.34;5093709;28;20056;-69
2022/01/08 01:19:05;;;;;;;13.98;8.77;;;;;;;0.39;85.13;100995.69;5095702;28;20499;-67
2022/01/08 01:21:32;;;;;;;16.17;8.82;;;;;;;0.40;85.14;100984.47;5093134;28;20051;-68
2022/01/08 01:24:06;;;;;;;21.13;9.88;;;;;;;0.39;85.01;100980.13;5095240;28;20056;-69
2022/01/08 01:26:34;;;;;;;15.80;10.20;;;;;;;0.40;85.08;100986.19;5093760;28;20041;-69
2022/01/08 01:29:32;;;;;;;20.15;10.30;;;;;;;0.41;85.21;100988.78;5094018;28;20053;-68
2022/01/08 01:48:15;;;;;;;19.85;10.18;;;;;;;0.41;85.22;100999.16;5094450;28;20049;-70
2022/01/08 01:50:42;;;;;;;16.98;9.45;;;;;;;0.44;85.28;100990.56;5093719;28;20135;-71
2022/01/08 01:53:08;;;;;;;18.25;10.60;;;;;;;0.45;85.41;100990.56;5091365;28;20056;-70
2022/01/08 01:55:35;;;;;;;15.63;9.63;;;;;;;0.44;85.17;100986.25;5094753;28;20624;-70
2022/01/08 01:58:05;;;;;;;19.30;9.75;;;;;;;0.44;85.35;100994.03;5093352;28;20451;-68
2022/01/08 02:00:34;;;;;;;16.95;9.85;;;;;;;0.46;85.23;100994.03;5084421;28;20079;-71
2022/01/08 02:03:01;;;;;;;18.42;9.52;;;;;;;0.45;85.20;101000.09;5084973;28;20127;-70
2022/01/08 02:05:28;;;;;;;14.25;8.70;;;;;;;0.44;85.14;100987.97;5094440;28;20129;-67
2022/01/08 02:07:56;;;;;;;18.13;9.90;;;;;;;0.43;85.17;100994.88;5095211;28;20043;-71
2022/01/08 02:10:23;;;;;;;12.65;8.27;;;;;;;0.43;85.16;100997.47;5094495;28;20053;-69
2022/01/08 02:12:50;;;;;;;17.83;9.57;;;;;;;0.42;85.17;100987.06;5093956;28;20091;-70
2022/01/08 02:15:17;;;;;;;17.58;9.30;;;;;;;0.41;85.10;100986.19;5094108;28;20055;-70
2022/01/08 02:17:44;;;;;;;15.82;9.35;;;;;;;0.40;85.03;100992.25;5094470;28;20055;-71
2022/01/08 02:20:11;;;;;;;17.42;9.13;;;;;;;0.38;85.11;100985.28;5092858;28;20094;-67
2022/01/08 02:22:38;;;;;;;15.00;8.45;;;;;;;0.37;85.12;100974.03;5093807;28;20076;-70
2022/01/08 02:25:05;;;;;;;16.45;8.93;;;;;;;0.39;85.02;100974.06;5094860;28;20048;-70
2022/01/08 02:27:32;;;;;;;16.95;8.60;;;;;;;0.37;85.04;100976.63;5083912;28;20071;-70
2022/01/08 02:29:59;;;;;;;14.10;8.20;;;;;;;0.38;85.15;100967.13;5097974;28;20040;-70
2022/01/08 02:32:29;;;;;;;18.92;9.27;;;;;;;0.36;85.07;100969.69;5097465;28;20159;-71
2022/01/08 02:34:56;;;;;;;18.95;9.40;;;;;;;0.36;85.06;100966.22;5098607;28;20493;-72
2022/01/08 02:37:30;;;;;;;14.93;8.85;;;;;;;0.35;84.90;100974.88;5098363;28;20075;-71
2022/01/08 02:39:58;;;;;;;16.70;8.73;;;;;;;0.36;84.89;100974.88;5074100;28;20048;-72
2022/01/08 02:42:29;;;;;;;13.68;8.40;;;;;;;0.36;84.99;100966.22;5088495;28;20052;-72
2022/01/08 02:44:56;;;;;;;15.73;8.95;;;;;;;0.35;85.05;100973.16;5095239;28;20131;-72
2022/01/08 02:47:22;;;;;;;16.58;9.00;;;;;;;0.34;85.02;100967.94;5092917;28;20759;-71
2022/01/08 02:49:52;;;;;;;17.58;9.23;;;;;;;0.34;85.01;100971.41;5095843;28;20080;-71
2022/01/08 02:52:22;;;;;;;15.88;8.52;;;;;;;0.33;84.82;100977.44;5078864;28;20493;-70
2022/01/08 02:54:49;;;;;;;18.10;9.15;;;;;;;0.34;84.79;100980.91;5091839;28;20044;-71
2022/01/08 02:57:16;;;;;;;17.27;9.90;;;;;;;0.33;84.75;100985.22;5096716;28;20049;-68
2022/01/08 02:59:42;;;;;;;18.45;9.77;;;;;;;0.32;84.82;100982.59;5095349;28;20398;-72
2022/01/08 03:02:09;;;;;;;16.17;9.18;;;;;;;0.32;85.13;100985.19;5092967;28;20048;-70
2022/01/08 03:04:36;;;;;;;18.80;10.05;;;;;;;0.30;84.90;100987.78;5096714;28;20491;-70
2022/01/08 03:07:03;;;;;;;16.00;9.73;;;;;;;0.32;84.67;100996.44;5095452;28;20497;-67
2022/01/08 03:09:31;;;;;;;19.83;10.57;;;;;;;0.31;84.87;100994.69;5097703;28;20465;-69
2022/01/08 03:11:58;;;;;;;19.90;10.68;;;;;;;0.29;84.87;100999.84;5096945;28;20052;-69
2022/01/08 03:14:24;;;;;;;15.73;10.48;;;;;;;0.29;85.02;101005.06;5097966;28;20079;-70
2022/01/08 03:16:51;;;;;;;16.77;10.25;;;;;;;0.28;84.95;100995.53;5079747;28;20064;-71
2022/01/08 03:19:18;;;;;;;19.77;11.02;;;;;;;0.27;84.83;100996.38;5096575;28;20477;-68
2022/01/08 03:21:51;;;;;;;19.83;11.07;;;;;;;0.26;84.96;100992.03;5095064;28;20091;-70
2022/01/08 03:24:26;;;;;;;18.80;10.77;;;;;;;0.26;85.02;100997.22;5097193;28;20119;-69
2022/01/08 03:26:53;;;;;;;20.67;11.82;;;;;;;0.27;84.88;101003.28;5111450;28;20063;-70
2022/01/08 03:29:21;;;;;;;22.08;12.07;;;;;;;0.27;84.75;101008.47;5089986;28;20040;-67
2022/01/08 03:31:48;;;;;;;19.08;12.75;;;;;;;0.26;84.91;101005.00;5094315;28;20486;-69
2022/01/08 03:34:15;;;;;;;21.42;12.95;;;;;;;0.26;84.99;101007.59;5095912;28;20075;-69
2022/01/08 03:36:42;;;;;;;21.58;11.93;;;;;;;0.26;84.99;101001.53;5096685;28;20029;-71
2022/01/08 03:39:09;;;;;;;17.00;11.45;;;;;;;0.27;84.95;101000.69;5080013;28;20056;-66
2022/01/08 03:41:36;;;;;;;28.33;12.57;;;;;;;0.26;85.06;101004.13;5094594;28;20047;-66
2022/01/08 03:44:03;;;;;;;19.08;12.38;;;;;;;0.24;84.92;101004.13;5096836;28;20735;-69
2022/01/08 03:46:35;;;;;;;20.95;12.57;;;;;;;0.24;85.02;101011.91;5097522;28;20029;-68
2022/01/08 03:51:33;;;;;;;21.50;12.63;;;;;;;0.26;85.16;101014.50;5096240;28;20057;-71
2022/01/08 03:54:00;;;;;;;22.70;12.73;;;;;;;0.24;85.00;101011.00;5095843;28;20789;-70
2022/01/08 03:56:27;;;;;;;21.67;12.82;;;;;;;0.23;85.11;101010.16;5086527;28;20057;-70
2022/01/08 03:58:54;;;;;;;20.85;13.00;;;;;;;0.22;85.01;101018.78;5095684;28;20962;-70
2022/01/08 04:01:21;;;;;;;22.13;12.68;;;;;;;0.23;85.13;101022.22;5089845;28;20506;-70
2022/01/08 04:03:47;;;;;;;22.52;12.02;;;;;;;0.23;85.28;101022.22;5093425;28;20048;-70
2022/01/08 04:06:14;;;;;;;18.80;12.15;;;;;;;0.23;85.18;101028.31;5096101;28;20053;-70
2022/01/08 04:08:41;;;;;;;19.88;11.98;;;;;;;0.22;85.10;101025.66;5087576;28;20593;-70
2022/01/08 04:11:08;;;;;;;23.73;12.85;;;;;;;0.22;85.08;101031.75;5096042;28;20076;-69
2022/01/08 04:13:38;;;;;;;26.00;12.27;;;;;;;0.22;85.24;101028.25;5093470;28;20410;-69
2022/01/08 04:16:14;;;;;;;26.05;12.82;;;;;;;0.24;85.20;101031.75;5095258;28;20056;-68
2022/01/08 04:18:41;;;;;;;21.33;12.50;;;;;;;0.23;85.25;101027.41;5095008;28;20052;-69
2022/01/08 04:23:36;;;;;;;21.23;12.13;;;;;;;0.23;85.23;101037.78;5095264;28;20047;-69
2022/01/08 04:26:03;;;;;;;20.15;11.38;;;;;;;0.22;85.23;101038.63;5095730;28;20048;-68
2022/01/08 04:28:30;;;;;;;20.58;12.25;;;;;;;0.20;85.19;101036.03;5096014;28;20057;-69
2022/01/08 04:30:57;;;;;;;23.52;12.85;;;;;;;0.20;85.26;101035.19;5095907;28;20047;-69
2022/01/08 04:33:23;;;;;;;20.02;12.13;;;;;;;0.18;85.19;101036.88;5093496;28;20048;-68
2022/01/08 04:35:50;;;;;;;24.25;12.93;;;;;;;0.17;85.29;101041.16;5082137;28;20052;-68
2022/01/08 04:38:17;;;;;;;23.02;12.50;;;;;;;0.15;85.27;101042.88;5095821;28;20044;-67
2022/01/08 04:40:43;;;;;;;22.38;12.80;;;;;;;0.14;85.14;101044.59;5095765;28;20060;-68
2022/01/08 04:43:10;;;;;;;21.67;11.77;;;;;;;0.12;85.32;101051.47;5094677;28;20044;-71
2022/01/08 04:45:37;;;;;;;18.52;12.15;;;;;;;0.12;85.32;101050.59;5095575;28;20047;-71
2022/01/08 04:48:06;;;;;;;21.80;12.23;;;;;;;0.10;85.40;101040.19;5089829;28;20044;-70
2022/01/08 04:50:33;;;;;;;24.23;11.93;;;;;;;0.09;85.20;101048.84;5094115;28;20083;-70
2022/01/08 04:53:00;;;;;;;22.88;12.85;;;;;;;0.08;85.42;101054.88;5094784;28;20446;-71
2022/01/08 04:55:26;;;;;;;20.02;11.75;;;;;;;0.07;85.20;101055.72;5094072;28;20040;-70
2022/01/08 04:57:53;;;;;;;23.83;12.20;;;;;;;0.05;85.26;101052.22;5091956;28;20048;-71
2022/01/08 05:00:21;;;;;;;18.67;11.48;;;;;;;0.06;85.37;101050.47;5094186;28;20090;-71
2022/01/08 05:02:49;;;;;;;23.00;11.88;;;;;;;0.06;85.34;101055.66;5093024;28;20086;-71
2022/01/08 05:05:16;;;;;;;19.67;12.07;;;;;;;0.05;85.06;101059.13;5091605;28;20040;-71
2022/01/08 05:07:43;;;;;;;23.98;12.50;;;;;;;0.05;85.33;101061.72;5095877;28;20052;-71
2022/01/08 05:10:11;;;;;;;22.52;12.77;;;;;;;0.03;85.32;101061.69;5095432;28;20140;-68
2022/01/08 05:12:38;;;;;;;25.17;11.85;;;;;;;0.02;85.55;101066.84;5085030;28;20159;-68
2022/01/08 05:15:06;;;;;;;20.13;12.02;;;;;;;0.02;85.43;101064.25;5090070;28;20044;-70
2022/01/08 05:17:35;;;;;;;23.27;11.20;;;;;;;0.02;85.31;101066.84;5088737;28;20060;-69
2022/01/08 05:20:12;;;;;;;18.80;11.70;;;;;;;0.02;85.16;101066.84;5089019;28;20049;-70
2022/01/08 05:22:52;;;;;;;22.50;12.80;;;;;;;-0.02;85.21;101060.75;5092530;28;20049;-69
2022/01/08 05:25:21;;;;;;;21.63;11.85;;;;;;;-0.01;85.35;101057.31;5083020;28;21083;-68
2022/01/08 05:27:49;;;;;;;20.20;11.55;;;;;;;-0.02;85.40;101059.03;5092790;28;20041;-69
2022/01/08 05:30:20;;;;;;;23.50;12.05;;;;;;;-0.02;85.38;101060.75;5095285;28;20056;-69
2022/01/08 05:32:48;;;;;;;19.42;11.45;;;;;;;-0.04;85.29;101055.53;5094949;28;20130;-70
2022/01/08 05:35:15;;;;;;;20.95;11.00;;;;;;;-0.04;85.37;101052.06;5093206;28;20041;-70
2022/01/08 05:37:42;;;;;;;24.42;11.55;;;;;;;-0.05;85.42;101060.69;5093072;28;20067;-70
2022/01/08 05:40:10;;;;;;;21.10;10.50;;;;;;;-0.05;85.46;101055.50;5094236;28;20051;-70
2022/01/08 05:42:37;;;;;;;22.67;11.45;;;;;;;-0.05;85.39;101058.94;5094533;28;20502;-68
2022/01/08 05:45:05;;;;;;;20.20;11.50;;;;;;;-0.04;85.47;101059.84;5084963;28;20045;-69
2022/01/08 05:47:34;;;;;;;20.13;11.07;;;;;;;-0.04;85.49;101062.44;5093411;28;20503;-68
2022/01/08 05:50:02;;;;;;;19.38;11.43;;;;;;;-0.05;85.58;101065.88;5094768;28;20052;-70
2022/01/08 05:52:29;;;;;;;23.25;11.63;;;;;;;-0.05;85.56;101065.88;5093371;28;20047;-71
2022/01/08 05:54:56;;;;;;;16.92;10.32;;;;;;;-0.05;85.55;101064.13;5091283;28;20463;-71
2022/01/08 05:57:23;;;;;;;23.02;10.60;;;;;;;-0.06;85.50;101065.03;5093488;28;20056;-71
2022/01/08 05:59:49;;;;;;;20.52;10.98;;;;;;;-0.07;85.53;101063.28;5094503;28;20131;-70
2022/01/08 06:02:16;;;;;;;18.02;10.60;;;;;;;-0.08;85.43;101077.06;5093362;28;20051;-71
2022/01/08 06:04:43;;;;;;;20.48;11.48;;;;;;;-0.06;85.64;101080.56;5093822;28;20414;-69
2022/01/08 06:07:10;;;;;;;21.27;11.07;;;;;;;-0.07;85.54;101078.81;5093205;28;20044;-69
2022/01/08 06:09:37;;;;;;;19.60;10.80;;;;;;;-0.05;85.50;101084.03;5085825;28;20132;-71
2022/01/08 06:12:04;;;;;;;22.92;11.38;;;;;;;-0.06;85.50;101083.16;5086101;28;20045;-70
2022/01/08 06:14:31;;;;;;;19.60;10.93;;;;;;;-0.06;85.30;101088.34;5087481;28;20044;-69
2022/01/08 06:16:58;;;;;;;21.42;11.90;;;;;;;-0.03;85.73;101103.94;5084360;28;20578;-70
2022/01/08 06:19:25;;;;;;;21.20;11.20;;;;;;;-0.03;85.71;101100.47;5090997;28;20388;-70
2022/01/08 06:21:51;;;;;;;23.67;11.05;;;;;;;-0.01;85.58;101103.97;5085296;28;20048;-71
2022/01/08 06:24:18;;;;;;;17.95;10.43;;;;;;;-0.03;85.77;101098.75;5091319;28;20501;-68
2022/01/08 06:26:45;;;;;;;17.75;10.90;;;;;;;-0.04;85.73;101104.78;5082248;28;20060;-69
2022/01/08 06:29:12;;;;;;;20.30;11.07;;;;;;;-0.05;85.75;101097.84;5088324;28;20041;-70
2022/01/08 06:31:38;;;;;;;18.80;10.73;;;;;;;-0.02;85.68;101110.00;5077174;28;20064;-72
2022/01/08 06:34:05;;;;;;;17.20;10.80;;;;;;;-0.03;85.79;101106.53;5087880;28;20503;-70
2022/01/08 06:36:34;;;;;;;25.38;11.02;;;;;;;-0.03;85.78;101111.72;5084133;28;20063;-68
2022/01/08 06:39:04;;;;;;;20.00;10.43;;;;;;;-0.06;85.81;101101.31;5087704;28;20053;-70
2022/01/08 06:41:31;;;;;;;19.23;10.93;;;;;;;-0.06;85.86;101106.50;5090420;28;20499;-71
2022/01/08 06:43:58;;;;;;;15.38;10.32;;;;;;;-0.07;85.94;101106.44;5079258;28;20052;-67
2022/01/08 06:46:25;;;;;;;22.48;11.10;;;;;;;-0.07;85.98;101107.34;5075723;28;20487;-70
2022/01/08 06:48:52;;;;;;;19.63;10.15;;;;;;;-0.08;85.99;101104.69;5086208;28;20037;-69
2022/01/08 06:51:19;;;;;;;17.02;10.43;;;;;;;-0.09;85.86;101108.13;5084675;28;20052;-71
2022/01/08 06:53:45;;;;;;;15.73;10.13;;;;;;;-0.09;85.89;101105.53;5080546;28;20491;-67
2022/01/08 06:56:12;;;;;;;21.42;10.88;;;;;;;-0.07;85.92;101103.84;5079606;28;20584;-67
2022/01/08 06:58:41;;;;;;;21.45;9.52;;;;;;;-0.06;85.94;101106.50;5083463;28;20770;-68
2022/01/08 07:01:08;;;;;;;17.35;9.80;;;;;;;-0.05;85.84;101107.34;5079686;28;20115;-72
2022/01/08 07:03:36;;;;;;;17.05;9.85;;;;;;;-0.03;85.97;101106.53;5087035;28;20052;-68
2022/01/08 07:06:04;;;;;;;17.70;9.63;;;;;;;-0.01;86.05;101099.66;5087307;28;20041;-69
2022/01/08 07:08:31;;;;;;;20.42;9.90;;;;;;;0.02;85.95;101103.16;5085804;28;20051;-68
2022/01/08 07:10:59;;;;;;;19.88;9.35;;;;;;;0.03;85.94;101102.31;5086364;28;20093;-70
2022/01/08 07:13:25;;;;;;;16.45;9.32;;;;;;;0.03;85.86;101100.56;5088224;28;20438;-69
2022/01/08 07:15:52;;;;;;;19.20;9.55;;;;;;;0.04;85.85;101096.28;5087363;28;20478;-71
2022/01/08 07:18:19;;;;;;;16.05;9.73;;;;;;;0.05;85.94;101095.44;5091818;28;20041;-71
2022/01/08 07:20:47;;;;;;;19.55;9.55;;;;;;;0.06;85.87;101108.41;5091874;28;20818;-69
2022/01/08 07:23:14;;;;;;;18.25;9.63;;;;;;;0.05;85.85;101111.00;5081612;28;20168;-67
2022/01/08 07:25:41;;;;;;;17.35;9.20;;;;;;;0.07;85.96;101106.69;5075624;28;20049;-68
2022/01/08 07:28:07;;;;;;;19.98;9.95;;;;;;;0.07;85.88;101110.16;5085220;28;20045;-67
2022/01/08 07:30:34;;;;;;;15.00;9.10;;;;;;;0.05;85.81;101105.81;5083416;28;20860;-69
2022/01/08 07:33:01;;;;;;;19.55;9.38;;;;;;;0.06;85.78;101105.81;5090024;28;20056;-68
2022/01/08 07:35:28;;;;;;;17.45;8.32;;;;;;;0.07;85.79;101102.38;5089615;28;20075;-69
2022/01/08 07:37:55;;;;;;;18.27;9.82;;;;;;;0.11;85.75;101104.16;5091218;28;20139;-67
2022/01/08 07:40:22;;;;;;;21.92;11.48;;;;;;;0.12;85.89;101100.72;5084821;28;20064;-66
2022/01/08 07:42:50;;;;;;;16.10;9.00;;;;;;;0.21;86.06;101100.03;5081875;28;20056;-67
2022/01/08 07:45:19;;;;;;;18.15;10.60;;;;;;;0.29;86.16;101103.59;5082253;28;20054;-63
2022/01/08 07:47:46;;;;;;;22.77;10.18;;;;;;;0.37;85.89;101100.25;5087196;28;20049;-63
2022/01/08 07:50:16;;;;;;;21.15;10.23;;;;;;;0.40;85.69;101096.00;5084813;28;20394;-67
2022/01/08 07:52:43;;;;;;;17.38;9.05;;;;;;;0.48;85.83;101095.25;5083015;28;20151;-67
2022/01/08 07:55:12;;;;;;;18.60;9.48;;;;;;;0.58;85.82;101102.31;5079664;28;20056;-67
2022/01/08 07:57:39;;;;;;;17.17;10.40;;;;;;;0.67;85.69;101097.25;5088009;28;20060;-68
2022/01/08 08:00:07;;;;;;;15.82;8.95;;;;;;;0.76;85.36;101096.53;5084434;28;20091;-68
2022/01/08 08:02:40;;;;;;;13.65;8.63;;;;;;;0.84;85.19;101092.31;5077933;28;20207;-68
2022/01/08 08:05:08;;;;;;;14.05;8.45;;;;;;;0.90;85.00;101094.13;5083680;28;20041;-69
2022/01/08 08:07:38;;;;;;;15.32;9.18;;;;;;;0.96;84.94;101082.97;5084982;28;20927;-69
2022/01/08 08:10:13;;;;;;;16.92;9.05;;;;;;;1.01;84.60;101087.34;5091888;28;20048;-69
2022/01/08 08:12:42;;;;;;;18.92;8.90;;;;;;;1.05;84.46;101083.94;5090487;28;20054;-69
2022/01/08 08:15:12;;;;;;;20.73;8.52;;;;;;;1.06;84.49;101084.81;5089150;28;20048;-68
2022/01/08 08:17:39;;;;;;;15.68;8.95;;;;;;;1.08;84.46;101083.97;5091714;28;20040;-70
2022/01/08 08:20:07;;;;;;;16.13;8.45;;;;;;;1.12;84.28;101077.09;5092318;28;20130;-69
2022/01/08 08:22:34;;;;;;;13.55;7.75;;;;;;;1.14;84.00;101083.19;5092063;28;20048;-69
2022/01/08 08:25:01;;;;;;;15.75;8.15;;;;;;;1.19;84.12;101078.91;5088822;28;20049;-69
2022/01/08 08:27:29;;;;;;;19.23;8.43;;;;;;;1.29;84.04;101074.72;5079443;28;20166;-67
2022/01/08 08:29:56;;;;;;;15.73;7.95;;;;;;;1.37;83.90;101070.47;5084385;28;20048;-67
2022/01/08 08:32:23;;;;;;;14.38;7.53;;;;;;;1.44;83.71;101078.31;5081367;28;20052;-69
2022/01/08 08:34:51;;;;;;;14.77;7.72;;;;;;;1.47;83.49;101068.84;5091383;28;20118;-69
2022/01/08 08:37:18;;;;;;;11.93;6.82;;;;;;;1.53;83.37;101068.91;5080076;28;20052;-67
2022/01/08 08:39:45;;;;;;;16.00;7.13;;;;;;;1.62;83.04;101062.06;5092411;28;20495;-67
2022/01/08 08:42:11;;;;;;;13.63;7.78;;;;;;;1.70;82.94;101063.88;5081208;28;20073;-68
2022/01/08 08:44:38;;;;;;;15.30;7.47;;;;;;;1.78;82.68;101050.94;5089208;28;20110;-68
2022/01/08 08:47:06;;;;;;;14.05;6.93;;;;;;;1.84;82.62;101057.94;5081816;28;20037;-68
2022/01/08 08:49:33;;;;;;;12.57;6.95;;;;;;;1.85;82.22;101055.38;5083715;28;20137;-69
2022/01/08 08:52:00;;;;;;;12.27;6.93;;;;;;;1.88;82.36;101054.50;5073652;28;20127;-68
2022/01/08 08:54:27;;;;;;;17.77;7.63;;;;;;;1.90;82.25;101054.50;5088308;28;20057;-69
2022/01/08 08:56:54;;;;;;;17.85;7.68;;;;;;;1.84;82.17;101045.81;5082543;28;20045;-67
2022/01/08 08:59:23;;;;;;;13.10;7.28;;;;;;;1.80;82.08;101046.63;5079541;28;20051;-70
2022/01/08 09:01:51;;;;;;;12.77;7.38;;;;;;;1.74;82.13;101051.78;5084298;28;20052;-68
2022/01/08 09:04:17;;;;;;;16.48;7.68;;;;;;;1.72;82.30;101048.28;5080130;28;20049;-68
2022/01/08 09:06:44;;;;;;;20.50;7.60;;;;;;;1.68;82.18;101046.50;5081626;28;20049;-70
2022/01/08 09:09:12;;;;;;;13.70;7.25;;;;;;;1.66;82.15;101048.25;5083828;28;20455;-69
2022/01/08 09:11:38;;;;;;;14.65;7.97;;;;;;;1.66;81.95;101043.06;5077144;28;20054;-70
2022/01/08 09:14:06;;;;;;;16.75;8.07;;;;;;;1.65;82.23;101039.56;5083944;28;20053;-70
2022/01/08 09:16:35;;;;;;;21.17;8.55;;;;;;;1.66;82.25;101045.66;5086310;28;20045;-71
2022/01/08 09:19:04;;;;;;;14.82;7.78;;;;;;;1.66;82.44;101041.31;5089487;28;20043;-70
2022/01/08 09:21:31;;;;;;;16.10;8.70;;;;;;;1.68;82.67;101038.72;5076402;28;20541;-69
2022/01/08 09:23:57;;;;;;;16.45;8.75;;;;;;;1.73;82.62;101049.19;5082335;28;20057;-70
2022/01/08 09:26:24;;;;;;;15.35;9.02;;;;;;;1.73;82.58;101036.19;5084951;28;20071;-69
2022/01/08 09:28:51;;;;;;;17.08;9.50;;;;;;;1.75;82.24;101034.44;5084212;28;20044;-70
2022/01/08 09:31:18;;;;;;;21.45;10.05;;;;;;;1.75;82.64;101034.44;5084704;28;20045;-70
2022/01/08 09:33:46;;;;;;;22.10;10.48;;;;;;;1.76;82.67;101039.69;5084529;28;20519;-69
2022/01/08 09:36:13;;;;;;;26.83;15.98;;;;;;;1.79;82.60;101033.63;5081017;28;20838;-68
2022/01/08 09:38:40;;;;;;;25.63;14.88;;;;;;;1.83;82.81;101040.63;5079790;28;20049;-69
2022/01/08 09:41:07;;;;;;;25.77;15.75;;;;;;;1.86;82.55;101036.31;5078384;28;20045;-70
2022/01/08 09:43:36;;;;;;;34.42;19.67;;;;;;;1.90;82.57;101034.59;5086704;28;20036;-68
2022/01/08 09:46:04;;;;;;;34.75;18.42;;;;;;;1.93;82.84;101031.16;5079232;28;20074;-66
2022/01/08 09:48:31;;;;;;;26.80;14.75;;;;;;;1.96;82.32;101026.84;5078880;28;20090;-66
2022/01/08 09:50:58;;;;;;;29.27;17.40;;;;;;;1.98;82.30;101025.13;5088748;28;20126;-67
2022/01/08 09:53:26;;;;;;;33.83;21.60;;;;;;;1.99;82.30;101026.88;5078046;28;20069;-69
2022/01/08 09:55:53;;;;;;;31.50;20.20;;;;;;;2.01;82.45;101019.06;5090165;28;20052;-69
2022/01/08 09:58:20;;;;;;;40.35;21.85;;;;;;;2.05;82.31;101009.56;5089493;28;20048;-69
2022/01/08 10:00:47;;;;;;;44.30;26.58;;;;;;;2.05;82.16;101010.44;5090704;28;20041;-70
2022/01/08 10:03:23;;;;;;;47.88;30.35;;;;;;;2.09;82.36;101000.94;5090225;28;20041;-68
2022/01/08 10:05:55;;;;;;;36.70;21.05;;;;;;;2.12;82.33;100994.03;5090256;28;20043;-69
2022/01/08 10:08:42;;;;;;;36.97;21.33;;;;;;;2.15;82.40;101000.97;5075917;28;20040;-70
2022/01/08 10:11:09;;;;;;;40.42;22.63;;;;;;;2.16;82.44;100984.50;5090051;28;20049;-67
2022/01/08 10:13:41;;;;;;;33.75;20.98;;;;;;;2.20;82.31;100978.47;5090288;28;20082;-68
2022/01/08 10:19:03;;;;;;;33.88;18.10;;;;;;;2.28;82.36;100958.56;5079918;28;20139;-70
2022/01/08 10:21:34;;;;;;;33.38;19.08;;;;;;;2.36;82.32;100952.53;5090044;28;20044;-68
2022/01/08 10:24:08;;;;;;;31.92;18.13;;;;;;;2.42;82.25;100934.38;5089611;28;20110;-70
2022/01/08 10:26:38;;;;;;;31.10;17.80;;;;;;;2.47;82.23;100940.44;5089241;28;20072;-68
2022/01/08 10:29:15;;;;;;;32.83;18.55;;;;;;;2.55;82.09;100928.31;5090856;28;20084;-69
2022/01/08 10:31:52;;;;;;;31.65;18.35;;;;;;;2.60;82.07;100931.84;5088331;28;20045;-68
2022/01/08 10:34:26;;;;;;;41.42;25.23;;;;;;;2.66;81.99;100917.09;5090156;28;20063;-70
2022/01/08 10:36:56;;;;;;;35.22;18.52;;;;;;;2.70;81.83;100909.28;5082649;28;20048;-68
2022/01/08 10:39:35;;;;;;;33.30;16.73;;;;;;;2.71;81.74;100908.44;5086412;28;20047;-70
2022/01/08 10:42:11;;;;;;;46.00;28.63;;;;;;;2.73;81.75;100896.28;5077721;28;20053;-69
2022/01/08 10:44:39;;;;;;;48.40;27.20;;;;;;;2.75;81.79;100893.69;5073105;28;20076;-69
2022/01/08 10:47:12;;;;;;;48.60;26.13;;;;;;;2.77;81.68;100882.44;5089966;28;20053;-69
2022/01/08 10:50:06;;;;;;;37.22;19.92;;;;;;;2.81;81.81;100862.47;5080563;28;20049;-68
2022/01/08 10:52:46;;;;;;;62.95;33.10;;;;;;;2.85;81.52;100856.38;5091446;28;20095;-68
2022/01/08 10:55:14;;;;;;;33.72;19.70;;;;;;;2.87;81.52;100854.66;5094918;28;20063;-70
2022/01/08 10:57:47;;;;;;;40.67;19.70;;;;;;;2.92;81.73;100846.84;5094969;28;20537;-67
2022/01/08 11:00:15;;;;;;;32.63;17.15;;;;;;;2.93;81.73;100844.28;5095556;28;20055;-69
2022/01/08 11:02:44;;;;;;;34.53;21.23;;;;;;;2.97;81.72;100846.84;5082290;28;20041;-69
2022/01/08 11:05:12;;;;;;;30.48;16.15;;;;;;;3.02;81.53;100825.16;5094847;28;20049;-69
2022/01/08 11:07:41;;;;;;;27.25;14.38;;;;;;;3.11;81.26;100821.72;5095242;28;20064;-68
2022/01/08 11:10:16;;;;;;;26.83;14.48;;;;;;;3.15;81.26;100810.44;5095163;28;20059;-69
2022/01/08 11:12:46;;;;;;;25.63;13.60;;;;;;;3.19;81.30;100816.50;5080733;28;20047;-68
2022/01/08 11:17:56;;;;;;;28.50;13.43;;;;;;;3.33;81.02;100819.94;5093490;28;20041;-70
2022/01/08 11:20:46;;;;;;;45.80;27.70;;;;;;;3.42;81.00;100811.28;5091376;27;20051;-67
2022/01/08 11:23:19;;;;;;;24.60;14.95;;;;;;;3.53;80.62;100811.25;5081759;28;20053;-69
2022/01/08 11:25:51;;;;;;;25.08;13.50;;;;;;;3.60;80.28;100807.78;5087768;28;20041;-71
2022/01/08 11:28:18;;;;;;;24.77;13.88;;;;;;;3.65;80.28;100789.50;5083769;28;20080;-69
2022/01/08 11:31:01;;;;;;;25.58;15.10;;;;;;;3.69;80.16;100786.88;5092559;28;20051;-68
2022/01/08 11:33:34;;;;;;;22.63;12.73;;;;;;;3.73;79.94;100775.56;5088847;28;20522;-71
2022/01/08 11:36:01;;;;;;;24.77;14.95;;;;;;;3.78;79.83;100778.16;5090983;28;20040;-70
2022/01/08 11:38:29;;;;;;;20.30;11.70;;;;;;;3.81;79.71;100762.50;5080534;28;20047;-69
2022/01/08 11:40:58;;;;;;;21.85;10.68;;;;;;;3.85;79.63;100766.84;5087540;28;20545;-70
2022/01/08 11:43:29;;;;;;;20.65;11.00;;;;;;;3.91;79.70;100762.47;5093039;28;20051;-69
2022/01/08 11:46:05;;;;;;;21.42;10.43;;;;;;;3.96;79.45;100755.50;5090415;28;20064;-70
2022/01/08 11:48:45;;;;;;;17.25;10.10;;;;;;;4.03;79.21;100746.78;5086365;28;20043;-72
2022/01/08 11:51:27;;;;;;;20.95;10.00;;;;;;;4.08;79.12;100737.16;5082731;28;20139;-70